Time;durP1;ratioP1;P1;durP2;ratioP2;P2;SDS_P1;SDS_P2;PMS_P1;PMS_P2;Temp;Humidity;BMP_temperature;BMP_pressure;BME280_temperature;BME280_humidity;BME280_pressure;Samples;Min_cycle;Max_cycle;Signal;HPM_P1;HPM_P2
2024/02/05 00:01:47;;;;;;;2.73;2.43;;;;;;;6.58;100.00;153050.41;5011906;28;20535;-95
2024/02/05 00:04:14;;;;;;;2.80;2.43;;;;;;;6.59;100.00;153053.00;4995435;28;20451;-95
2024/02/05 00:06:40;;;;;;;3.87;2.27;;;;;;;6.65;100.00;153068.47;4995414;28;20476;-94
2024/02/05 00:09:07;;;;;;;3.57;2.20;;;;;;;6.63;100.00;153064.63;4995351;28;20460;-94
2024/02/05 00:11:34;;;;;;;2.20;2.00;;;;;;;6.65;100.00;153068.47;5011337;28;20796;-95
2024/02/05 00:14:00;;;;;;;2.40;1.63;;;;;;;6.67;100.00;153074.91;5011509;28;20555;-94
2024/02/05 00:16:28;;;;;;;2.80;1.97;;;;;;;6.67;100.00;153073.66;4995368;28;20447;-95
2024/02/05 00:18:56;;;;;;;2.73;2.17;;;;;;;6.66;100.00;153071.06;5012839;28;20487;-94
2024/02/05 00:21:23;;;;;;;2.67;2.10;;;;;;;6.64;100.00;153065.91;5012541;28;20484;-94
2024/02/05 00:23:49;;;;;;;2.10;1.70;;;;;;;6.63;100.00;153063.31;5011530;28;20445;-95
2024/02/05 00:26:16;;;;;;;2.20;1.60;;;;;;;6.63;100.00;153064.63;4994898;28;20445;-94
2024/02/05 00:28:42;;;;;;;1.87;1.50;;;;;;;6.65;100.00;153068.47;4994819;28;20481;-95
2024/02/05 00:31:09;;;;;;;2.00;1.23;;;;;;;6.66;100.00;153072.38;4995387;28;20455;-94
2024/02/05 00:33:36;;;;;;;2.63;1.77;;;;;;;6.70;100.00;153082.66;4994640;28;20459;-95
2024/02/05 00:36:06;;;;;;;2.87;1.63;;;;;;;6.70;100.00;153082.66;4994819;28;20433;-94
2024/02/05 00:38:32;;;;;;;1.60;1.50;;;;;;;6.73;100.00;153089.13;5011342;28;20484;-94
2024/02/05 00:40:59;;;;;;;2.77;1.50;;;;;;;6.76;100.00;153096.88;4994313;28;20957;-94
2024/02/05 00:43:26;;;;;;;1.70;1.37;;;;;;;6.76;100.00;153096.88;4994640;28;20437;-94
2024/02/05 00:45:52;;;;;;;2.33;1.93;;;;;;;6.77;100.00;153099.47;5011281;28;20479;-94
2024/02/05 00:48:19;;;;;;;2.80;2.07;;;;;;;6.73;100.00;153089.13;5010956;28;20472;-94
2024/02/05 00:50:46;;;;;;;1.93;1.40;;;;;;;6.68;100.00;153076.22;5010853;28;20448;-95
2024/02/05 00:53:14;;;;;;;1.67;1.33;;;;;;;6.67;100.00;153073.66;5010468;28;20444;-94
2024/02/05 00:55:41;;;;;;;2.50;1.60;;;;;;;6.64;100.00;153065.91;5011169;28;20444;-94
2024/02/05 00:58:07;;;;;;;2.20;1.57;;;;;;;6.63;100.00;153063.31;4994734;28;20441;-94
2024/02/05 01:00:34;;;;;;;1.50;1.23;;;;;;;6.63;100.00;153063.31;4994318;28;20576;-94
2024/02/05 01:03:02;;;;;;;2.00;1.57;;;;;;;6.62;100.00;153062.03;5010701;28;20477;-94
2024/02/05 01:05:28;;;;;;;1.83;1.40;;;;;;;6.62;100.00;153062.03;5010674;28;20491;-95
2024/02/05 01:07:55;;;;;;;1.70;1.40;;;;;;;6.62;100.00;153060.72;4995287;28;20613;-94
2024/02/05 01:10:23;;;;;;;1.63;1.40;;;;;;;6.63;100.00;153063.31;4994426;28;20447;-94
2024/02/05 01:12:50;;;;;;;1.57;1.40;;;;;;;6.64;100.00;153065.91;5010718;28;20463;-94
2024/02/05 01:15:16;;;;;;;1.93;1.30;;;;;;;6.67;100.00;153074.91;4993853;28;20457;-94
2024/02/05 01:17:43;;;;;;;2.27;1.30;;;;;;;6.71;100.00;153083.97;4994060;28;20444;-94
2024/02/05 01:20:11;;;;;;;2.07;1.63;;;;;;;6.73;100.00;153089.13;5011019;28;20452;-94
2024/02/05 01:22:38;;;;;;;2.13;1.53;;;;;;;6.76;100.00;153096.88;5010082;28;20483;-94
2024/02/05 01:25:05;;;;;;;2.17;1.60;;;;;;;6.77;100.00;153099.47;4994120;28;20448;-95
2024/02/05 01:27:33;;;;;;;2.03;1.73;;;;;;;6.78;100.00;153100.78;5010630;28;20915;-95
2024/02/05 01:30:00;;;;;;;2.37;1.60;;;;;;;6.82;100.00;153111.06;5010550;28;20453;-95
2024/02/05 01:32:27;;;;;;;1.80;1.60;;;;;;;6.85;100.00;153120.13;4993798;28;20447;-95
2024/02/05 01:34:53;;;;;;;1.97;1.57;;;;;;;6.86;100.00;153122.69;5010091;28;20472;-95
2024/02/05 01:37:20;;;;;;;2.10;1.50;;;;;;;6.89;100.00;153129.13;5010161;28;20437;-95
2024/02/05 01:39:47;;;;;;;1.77;1.10;;;;;;;6.93;100.00;153139.47;5010202;28;20447;-95
2024/02/05 01:42:14;;;;;;;2.43;1.63;;;;;;;6.96;100.00;153148.53;5009687;28;20480;-95
2024/02/05 01:44:42;;;;;;;2.00;1.20;;;;;;;6.96;100.00;153147.25;5010028;28;20548;-94
2024/02/05 01:47:09;;;;;;;1.70;1.37;;;;;;;6.98;100.00;153153.69;4994041;28;20477;-95
2024/02/05 01:49:36;;;;;;;2.30;1.23;;;;;;;6.98;100.00;153153.69;4993865;28;20464;-94
2024/02/05 01:52:04;;;;;;;1.10;0.70;;;;;;;7.00;100.00;153157.53;5010108;28;20456;-95
2024/02/05 01:54:31;;;;;;;1.77;1.30;;;;;;;7.02;100.00;153164.00;4993794;28;20443;-95
2024/02/05 01:57:00;;;;;;;2.17;1.30;;;;;;;7.06;100.00;153173.03;4993914;28;20452;-94
2024/02/05 01:59:26;;;;;;;1.47;1.03;;;;;;;7.08;100.00;153178.19;4993691;28;20444;-94
2024/02/05 02:01:55;;;;;;;1.50;1.13;;;;;;;7.08;100.00;153179.50;4993521;28;20483;-94
2024/02/05 02:04:22;;;;;;;0.93;0.60;;;;;;;7.10;100.00;153184.66;4993305;28;20451;-94
2024/02/05 02:06:48;;;;;;;1.77;0.60;;;;;;;7.14;100.00;153193.72;4993358;28;20461;-94
2024/02/05 02:09:16;;;;;;;1.67;0.77;;;;;;;7.12;100.00;153189.81;5009885;28;20460;-94
2024/02/05 02:11:42;;;;;;;1.30;0.73;;;;;;;7.15;100.00;153197.56;5009958;28;20498;-95
2024/02/05 02:14:09;;;;;;;0.87;0.50;;;;;;;7.17;100.00;153201.47;5009551;28;20436;-93
2024/02/05 02:16:36;;;;;;;1.13;0.90;;;;;;;7.20;100.00;153209.22;4993908;28;20436;-94
2024/02/05 02:19:12;;;;;;;1.73;0.93;;;;;;;7.21;100.00;153211.78;4993409;28;20441;-94
2024/02/05 02:22:16;;;;;;;0.93;0.50;;;;;;;7.22;100.00;153215.66;4994271;28;20445;-94
2024/02/05 02:24:44;;;;;;;1.33;0.77;;;;;;;7.24;100.00;153220.81;4993600;28;20454;-94
2024/02/05 02:27:11;;;;;;;1.60;0.80;;;;;;;7.23;100.00;153218.22;4993294;28;20453;-94
2024/02/05 02:29:38;;;;;;;1.30;0.70;;;;;;;7.23;100.00;153218.22;4992966;28;20530;-94
2024/02/05 02:32:08;;;;;;;1.10;0.47;;;;;;;7.22;100.00;153215.66;4993611;28;20480;-94
2024/02/05 02:34:38;;;;;;;1.90;0.70;;;;;;;7.23;100.00;153218.22;4993127;28;20455;-94
2024/02/05 02:37:08;;;;;;;1.43;0.60;;;;;;;7.23;100.00;153218.22;5009847;28;20445;-94
2024/02/05 02:39:38;;;;;;;1.30;0.60;;;;;;;7.19;100.00;153207.91;4993358;28;20449;-93
2024/02/05 02:42:06;;;;;;;1.10;0.70;;;;;;;7.22;100.00;153215.66;5009428;28;20560;-94
2024/02/05 02:44:34;;;;;;;1.13;0.60;;;;;;;7.23;100.00;153218.22;5011528;28;20448;-94
2024/02/05 02:47:01;;;;;;;1.77;0.90;;;;;;;7.22;100.00;153215.66;5012881;28;20435;-94
2024/02/05 02:49:28;;;;;;;1.57;0.83;;;;;;;7.23;100.00;153218.22;4996493;28;20437;-93
2024/02/05 02:51:54;;;;;;;1.80;0.80;;;;;;;7.23;100.00;153216.91;4996518;28;20441;-94
2024/02/05 02:54:21;;;;;;;1.07;0.60;;;;;;;7.21;100.00;153213.06;4996132;28;20471;-93
2024/02/05 02:56:47;;;;;;;1.10;0.63;;;;;;;7.21;100.00;153213.06;4996854;28;20433;-94
2024/02/05 02:59:16;;;;;;;1.27;0.70;;;;;;;7.20;100.00;153210.47;4996175;28;20448;-94
2024/02/05 03:01:43;;;;;;;1.60;0.80;;;;;;;7.21;100.00;153213.06;4996277;28;20451;-94
2024/02/05 03:04:10;;;;;;;1.20;0.73;;;;;;;7.21;100.00;153213.06;4996188;28;21052;-94
2024/02/05 03:06:36;;;;;;;1.50;0.70;;;;;;;7.20;100.00;153209.22;4995675;28;20468;-94
2024/02/05 03:09:03;;;;;;;1.10;0.60;;;;;;;7.21;100.00;153213.06;4996176;28;20886;-94
2024/02/05 03:11:30;;;;;;;1.33;0.90;;;;;;;7.22;100.00;153215.66;5005007;28;20858;-93
2024/02/05 03:13:56;;;;;;;1.17;0.60;;;;;;;7.22;100.00;153214.38;4994696;28;20465;-94
2024/02/05 03:16:24;;;;;;;1.83;0.80;;;;;;;7.22;100.00;153215.66;4996073;28;20448;-94
2024/02/05 03:18:51;;;;;;;1.47;0.77;;;;;;;7.22;100.00;153214.38;4995835;28;20465;-94
2024/02/05 03:21:17;;;;;;;1.33;0.77;;;;;;;7.17;100.00;153202.75;4995849;28;20535;-94
2024/02/05 03:23:44;;;;;;;1.13;0.87;;;;;;;7.21;100.00;153213.06;5011836;28;20491;-94
2024/02/05 03:26:11;;;;;;;1.20;0.80;;;;;;;7.21;100.00;153213.06;5012261;28;20437;-94
2024/02/05 03:28:37;;;;;;;1.20;0.73;;;;;;;7.24;100.00;153220.81;5011986;28;20850;-94
2024/02/05 03:31:04;;;;;;;1.37;0.50;;;;;;;7.25;100.00;153223.38;5012074;28;20924;-94
2024/02/05 03:33:32;;;;;;;1.90;0.80;;;;;;;7.24;100.00;153220.81;4995716;28;20551;-94
2024/02/05 03:35:58;;;;;;;0.90;0.50;;;;;;;7.26;100.00;153224.66;4995932;28;20448;-94
2024/02/05 03:38:25;;;;;;;1.10;0.47;;;;;;;7.25;100.00;153223.38;5012236;28;20455;-94
2024/02/05 03:40:51;;;;;;;1.93;0.70;;;;;;;7.29;100.00;153233.72;5011773;28;20437;-94
2024/02/05 03:43:18;;;;;;;1.30;0.63;;;;;;;7.28;100.00;153231.13;5011718;28;20571;-93
2024/02/05 03:45:45;;;;;;;1.10;0.60;;;;;;;7.27;100.00;153228.56;4980569;28;20458;-94
2024/02/05 03:48:12;;;;;;;2.63;0.63;;;;;;;7.26;100.00;153224.66;4992143;28;20442;-94
2024/02/05 03:50:40;;;;;;;1.97;0.60;;;;;;;7.25;100.00;153222.13;4976092;28;20444;-94
2024/02/05 03:53:06;;;;;;;1.10;0.50;;;;;;;7.26;100.00;153224.66;4991989;28;20962;-94
2024/02/05 03:55:33;;;;;;;1.00;0.40;;;;;;;7.28;100.00;153231.13;4991161;28;20438;-94
2024/02/05 03:58:00;;;;;;;1.13;0.50;;;;;;;7.28;100.00;153231.13;4982909;28;20511;-94
2024/02/05 04:00:26;;;;;;;1.03;0.53;;;;;;;7.29;100.00;153233.72;4994932;28;20461;-94
2024/02/05 04:02:53;;;;;;;1.77;0.67;;;;;;;7.31;100.00;153238.88;5011014;28;20480;-94
2024/02/05 04:05:20;;;;;;;0.90;0.50;;;;;;;7.29;100.00;153233.72;5011242;28;20554;-94
2024/02/05 04:07:48;;;;;;;1.03;0.50;;;;;;;7.32;100.00;153241.47;4983412;28;20442;-94
2024/02/05 04:10:14;;;;;;;1.37;0.50;;;;;;;7.31;100.00;153238.88;4975795;28;20453;-94
2024/02/05 04:12:41;;;;;;;0.97;0.60;;;;;;;7.31;100.00;153238.88;4975465;28;20446;-94
2024/02/05 04:15:09;;;;;;;0.80;0.40;;;;;;;7.27;100.00;153228.56;4975687;28;20449;-94
2024/02/05 04:17:36;;;;;;;1.40;0.50;;;;;;;7.28;100.00;153231.13;4975373;28;20462;-94
2024/02/05 04:20:04;;;;;;;1.10;0.63;;;;;;;7.30;100.00;153236.34;4975542;28;20449;-94
2024/02/05 04:22:31;;;;;;;1.70;1.00;;;;;;;7.32;100.00;153241.47;4976452;28;20477;-94
2024/02/05 04:24:59;;;;;;;3.37;2.33;;;;;;;7.32;100.00;153241.47;4977274;28;20442;-94
2024/02/05 04:27:25;;;;;;;4.73;3.67;;;;;;;7.27;100.00;153228.56;4991380;28;20489;-94
2024/02/05 04:29:55;;;;;;;3.30;2.43;;;;;;;7.27;100.00;153228.56;4975423;28;20475;-94
2024/02/05 04:32:22;;;;;;;2.30;2.00;;;;;;;7.26;100.00;153225.97;4975549;28;20841;-94
2024/02/05 04:34:49;;;;;;;2.73;1.83;;;;;;;7.23;100.00;153218.22;4975222;28;20460;-94
2024/02/05 04:37:15;;;;;;;2.83;1.90;;;;;;;7.22;100.00;153215.66;4975450;28;20453;-94
2024/02/05 04:39:42;;;;;;;2.03;1.37;;;;;;;7.20;100.00;153210.47;4975178;28;20450;-94
2024/02/05 04:42:10;;;;;;;1.73;1.30;;;;;;;7.21;100.00;153213.06;4975240;28;20449;-94
2024/02/05 04:44:37;;;;;;;2.40;1.43;;;;;;;7.17;100.00;153202.75;4991072;28;20493;-94
2024/02/05 04:47:03;;;;;;;2.87;1.87;;;;;;;7.16;100.00;153200.16;4975356;28;20438;-94
2024/02/05 04:49:30;;;;;;;1.77;1.43;;;;;;;7.15;100.00;153197.56;4975248;28;20799;-94
2024/02/05 04:51:58;;;;;;;3.10;1.87;;;;;;;7.14;100.00;153193.72;4975442;28;20442;-94
2024/02/05 04:54:25;;;;;;;2.70;1.93;;;;;;;7.14;100.00;153195.00;5004437;28;20449;-94
2024/02/05 04:56:51;;;;;;;2.67;1.57;;;;;;;7.14;100.00;153195.00;4997401;28;20450;-94
2024/02/05 04:59:19;;;;;;;2.30;0.90;;;;;;;7.13;100.00;153192.41;4990448;28;20462;-94
2024/02/05 05:01:46;;;;;;;3.17;1.60;;;;;;;7.12;100.00;153189.81;4974388;28;20461;-94
2024/02/05 05:04:12;;;;;;;1.93;1.30;;;;;;;7.08;100.00;153179.50;4987312;28;20837;-94
2024/02/05 05:06:43;;;;;;;1.83;1.30;;;;;;;7.09;100.00;153182.09;4993516;28;20576;-94
2024/02/05 05:09:10;;;;;;;2.50;1.70;;;;;;;7.10;100.00;153183.34;5007025;28;20442;-94
2024/02/05 05:11:36;;;;;;;1.70;1.40;;;;;;;7.07;100.00;153176.91;4975407;28;20456;-94
2024/02/05 05:14:03;;;;;;;3.00;2.23;;;;;;;7.07;100.00;153176.91;4979003;28;20450;-94
2024/02/05 05:16:31;;;;;;;2.93;1.50;;;;;;;7.08;100.00;153178.19;4974798;28;20441;-94
2024/02/05 05:18:58;;;;;;;2.50;1.40;;;;;;;7.10;100.00;153184.66;4977724;28;20452;-94
2024/02/05 05:21:25;;;;;;;1.73;1.13;;;;;;;7.12;100.00;153188.56;4994153;28;20441;-94
2024/02/05 05:23:52;;;;;;;1.80;1.20;;;;;;;7.14;100.00;153193.72;4993749;28;20484;-94
2024/02/05 05:26:21;;;;;;;1.33;0.90;;;;;;;7.13;100.00;153192.41;4994018;28;20441;-93
2024/02/05 05:28:48;;;;;;;2.23;1.30;;;;;;;7.10;100.00;153184.66;4993770;28;20449;-93
2024/02/05 05:31:16;;;;;;;1.50;1.20;;;;;;;7.10;100.00;153184.66;4994033;28;20448;-94
2024/02/05 05:33:44;;;;;;;2.30;1.47;;;;;;;7.10;100.00;153184.66;4993682;28;20531;-93
2024/02/05 05:36:10;;;;;;;1.07;0.80;;;;;;;7.09;100.00;153180.81;5010392;28;20467;-94
2024/02/05 05:38:37;;;;;;;2.20;0.97;;;;;;;7.06;100.00;153174.34;5010273;28;20480;-93
2024/02/05 05:41:04;;;;;;;2.07;0.83;;;;;;;7.09;100.00;153182.09;4993730;28;20433;-94
2024/02/05 05:43:31;;;;;;;2.20;0.83;;;;;;;7.10;100.00;153183.34;4993628;28;20480;-93
2024/02/05 05:45:58;;;;;;;1.37;0.57;;;;;;;7.11;100.00;153187.25;4993626;28;20959;-94
2024/02/05 05:48:25;;;;;;;1.50;0.60;;;;;;;7.13;100.00;153191.09;4993724;28;20847;-94
2024/02/05 05:50:53;;;;;;;1.40;0.80;;;;;;;7.13;100.00;153192.41;4978114;28;20483;-93
2024/02/05 05:53:22;;;;;;;1.60;0.80;;;;;;;7.12;100.00;153189.81;4974105;28;20460;-94
2024/02/05 05:55:51;;;;;;;1.60;0.73;;;;;;;7.14;100.00;153195.00;4974045;28;20444;-93
2024/02/05 05:58:18;;;;;;;1.00;0.80;;;;;;;7.07;100.00;153176.91;4990418;28;20438;-94
2024/02/05 06:00:45;;;;;;;1.40;0.90;;;;;;;7.06;100.00;153173.03;4974326;28;20454;-94
2024/02/05 06:03:13;;;;;;;0.93;0.50;;;;;;;7.06;100.00;153174.34;4990064;28;20528;-93
2024/02/05 06:05:42;;;;;;;1.10;0.60;;;;;;;7.06;100.00;153173.03;4974042;28;20480;-93
2024/02/05 06:08:14;;;;;;;2.33;1.00;;;;;;;7.08;100.00;153179.50;4990288;28;20422;-93
2024/02/05 06:10:45;;;;;;;1.80;0.80;;;;;;;7.06;100.00;153174.34;4974504;28;20802;-90
2024/02/05 06:13:12;;;;;;;1.30;0.90;;;;;;;7.06;100.00;153174.34;5009569;28;20463;-94
2024/02/05 06:15:42;;;;;;;1.33;0.90;;;;;;;7.04;100.00;153169.16;5009789;28;20519;-93
2024/02/05 06:18:08;;;;;;;1.57;1.10;;;;;;;7.04;100.00;153167.91;4993727;28;20444;-93
2024/02/05 06:20:35;;;;;;;2.57;1.10;;;;;;;7.01;100.00;153161.44;5013656;28;20467;-94
2024/02/05 06:23:01;;;;;;;1.53;1.20;;;;;;;7.03;100.00;153165.28;5013498;28;20435;-94
2024/02/05 06:25:29;;;;;;;1.77;1.20;;;;;;;7.03;100.00;153166.59;5013756;28;20444;-94
2024/02/05 06:27:56;;;;;;;3.33;1.40;;;;;;;7.02;100.00;153162.69;4997284;28;20448;-94
2024/02/05 06:30:28;;;;;;;1.20;0.87;;;;;;;7.01;100.00;153161.44;5016339;28;20432;-94
2024/02/05 06:38:27;;;;;;;1.83;1.63;;;;;;;7.00;100.00;153158.84;5012709;28;20508;-94
2024/02/05 06:40:55;;;;;;;1.20;0.70;;;;;;;6.99;100.00;153156.25;5013007;28;20444;-94
2024/02/05 06:43:21;;;;;;;1.60;0.97;;;;;;;7.00;100.00;153158.84;5013075;28;20469;-94
2024/02/05 06:45:48;;;;;;;1.40;0.70;;;;;;;7.00;100.00;153158.84;5013262;28;20559;-94
2024/02/05 06:48:14;;;;;;;1.50;1.10;;;;;;;6.99;100.00;153156.25;5014644;28;20433;-93
2024/02/05 06:50:41;;;;;;;1.80;0.90;;;;;;;6.98;100.00;153153.69;4996791;28;20441;-94
2024/02/05 06:53:07;;;;;;;1.30;0.93;;;;;;;6.98;100.00;153153.69;4996778;28;20444;-93
2024/02/05 06:55:34;;;;;;;1.60;1.10;;;;;;;6.95;100.00;153145.94;5013336;28;20453;-93
2024/02/05 06:58:02;;;;;;;2.23;1.30;;;;;;;6.96;100.00;153148.53;4996998;28;20456;-92
2024/02/05 07:00:31;;;;;;;1.73;1.03;;;;;;;6.97;100.00;153151.09;5013966;28;20437;-92
2024/02/05 07:02:58;;;;;;;1.60;0.80;;;;;;;6.94;100.00;153143.34;5014000;28;20436;-93
2024/02/05 07:05:24;;;;;;;2.20;1.27;;;;;;;6.95;100.00;153144.63;4980445;28;20514;-93
2024/02/05 07:07:51;;;;;;;1.87;1.13;;;;;;;6.94;100.00;153142.03;5012882;28;20449;-94
2024/02/05 07:10:17;;;;;;;1.90;1.03;;;;;;;6.92;100.00;153138.19;5013943;28;20512;-93
2024/02/05 07:12:44;;;;;;;1.50;0.97;;;;;;;6.92;100.00;153136.88;4996154;28;20503;-93
2024/02/05 07:15:14;;;;;;;2.20;1.00;;;;;;;6.93;100.00;153139.47;4996285;28;20495;-93
2024/02/05 07:17:43;;;;;;;3.27;1.40;;;;;;;6.91;100.00;153135.59;5012755;28;20444;-93
2024/02/05 07:20:12;;;;;;;1.83;1.00;;;;;;;6.92;100.00;153138.19;5013812;28;20437;-93
2024/02/05 07:22:38;;;;;;;1.47;0.90;;;;;;;6.93;100.00;153140.78;5013913;28;20437;-93
2024/02/05 07:25:06;;;;;;;1.27;0.80;;;;;;;6.95;100.00;153145.94;4995885;28;20905;-93
2024/02/05 07:27:35;;;;;;;1.30;1.00;;;;;;;6.97;100.00;153149.78;4996169;28;20437;-93
2024/02/05 07:30:02;;;;;;;1.67;0.90;;;;;;;6.97;100.00;153149.78;4996023;28;20436;-93
2024/02/05 07:32:30;;;;;;;2.63;1.10;;;;;;;6.98;100.00;153153.69;5013627;28;20433;-93
2024/02/05 07:34:57;;;;;;;1.50;1.33;;;;;;;6.98;100.00;153153.69;5013439;28;20449;-92
2024/02/05 07:37:24;;;;;;;1.83;1.00;;;;;;;6.95;100.00;153145.94;4995533;28;20986;-93
2024/02/05 07:39:50;;;;;;;2.33;1.00;;;;;;;6.97;100.00;153151.09;4996557;28;20445;-92
2024/02/05 07:42:17;;;;;;;2.50;1.13;;;;;;;6.96;100.00;153148.53;4994079;28;20441;-92
2024/02/05 07:44:44;;;;;;;1.20;0.70;;;;;;;6.98;100.00;153153.69;4994005;28;20477;-93
2024/02/05 07:47:10;;;;;;;1.80;1.20;;;;;;;7.00;100.00;153158.84;4994024;28;20445;-93
2024/02/05 07:49:40;;;;;;;2.87;1.40;;;;;;;6.98;100.00;153152.38;4994070;28;20425;-93
2024/02/05 07:52:07;;;;;;;1.90;1.33;;;;;;;6.98;100.00;153153.69;4996809;28;20451;-92
2024/02/05 07:54:33;;;;;;;2.93;1.90;;;;;;;7.01;100.00;153161.44;5011720;28;20437;-94
2024/02/05 07:57:02;;;;;;;2.17;1.67;;;;;;;7.05;100.00;153171.75;4995636;28;20555;-94
2024/02/05 07:59:28;;;;;;;2.63;2.00;;;;;;;7.09;100.00;153182.09;5011588;28;20441;-93
2024/02/05 08:01:55;;;;;;;2.07;1.53;;;;;;;7.14;100.00;153195.00;5011985;28;20456;-93
2024/02/05 08:04:22;;;;;;;3.07;1.30;;;;;;;7.21;100.00;153211.78;5012679;28;20485;-93
2024/02/05 08:06:49;;;;;;;2.43;1.40;;;;;;;7.24;100.00;153220.81;4997192;28;21014;-93
2024/02/05 08:09:16;;;;;;;1.43;1.10;;;;;;;7.29;100.00;153232.44;4997343;28;20581;-93
2024/02/05 08:11:43;;;;;;;1.40;1.00;;;;;;;7.32;100.00;153241.47;4995722;28;20444;-93
2024/02/05 08:14:10;;;;;;;3.10;1.20;;;;;;;7.36;100.00;153251.78;5012563;28;20444;-93
2024/02/05 08:16:36;;;;;;;2.03;1.30;;;;;;;7.39;100.00;153258.25;4994851;28;20448;-93
2024/02/05 08:19:04;;;;;;;1.60;1.10;;;;;;;7.42;100.00;153264.69;4994925;28;20456;-92
2024/02/05 08:21:30;;;;;;;1.63;1.10;;;;;;;7.40;100.00;153259.53;5012593;28;20465;-93
2024/02/05 08:23:59;;;;;;;3.93;1.00;;;;;;;7.43;100.00;153267.31;5012422;28;20472;-92
2024/02/05 08:26:25;;;;;;;2.37;1.00;;;;;;;7.47;100.00;153277.63;4995158;28;20440;-93
2024/02/05 08:28:52;;;;;;;1.27;0.83;;;;;;;7.54;100.00;153295.72;4994941;28;20954;-93
2024/02/05 08:31:19;;;;;;;1.97;0.77;;;;;;;7.61;100.00;153313.78;5012450;28;20444;-93
2024/02/05 08:33:46;;;;;;;1.30;0.80;;;;;;;7.62;100.00;153316.41;5012211;28;20441;-93
2024/02/05 08:36:13;;;;;;;2.23;0.90;;;;;;;7.66;100.00;153326.72;5011138;28;20452;-93
2024/02/05 08:38:39;;;;;;;2.00;1.00;;;;;;;7.68;100.00;153331.84;5012560;28;20630;-94
2024/02/05 08:41:07;;;;;;;1.30;0.87;;;;;;;7.72;100.00;153343.53;5010456;28;20460;-94
2024/02/05 08:43:33;;;;;;;1.17;0.80;;;;;;;7.79;100.00;153360.28;4994572;28;20491;-94
2024/02/05 08:46:00;;;;;;;1.80;1.13;;;;;;;7.79;100.00;153360.28;5012435;28;20980;-93
2024/02/05 08:48:26;;;;;;;1.20;0.70;;;;;;;7.83;100.00;153371.94;5013056;28;20441;-93
2024/02/05 08:50:53;;;;;;;2.20;1.10;;;;;;;7.90;100.00;153390.03;5010914;28;20453;-93
2024/02/05 08:53:19;;;;;;;1.67;0.77;;;;;;;7.95;100.00;153402.94;5010534;28;20540;-94
2024/02/05 08:55:46;;;;;;;2.10;1.00;;;;;;;7.98;100.00;153410.69;4994673;28;20451;-93
2024/02/05 08:58:14;;;;;;;2.60;0.93;;;;;;;8.02;100.00;153419.75;5012557;28;20943;-93
2024/02/05 09:00:40;;;;;;;1.90;1.07;;;;;;;8.09;100.00;153437.81;4977795;28;20457;-93
2024/02/05 09:03:10;;;;;;;2.03;0.97;;;;;;;8.12;100.00;153445.59;4993984;28;20456;-94
2024/02/05 09:05:37;;;;;;;1.57;0.70;;;;;;;8.19;100.00;153463.66;5003287;28;20504;-93
2024/02/05 09:08:05;;;;;;;2.57;0.80;;;;;;;8.24;100.00;153475.28;4992161;28;20434;-94
2024/02/05 09:10:31;;;;;;;1.27;0.63;;;;;;;8.30;100.00;153492.16;5002000;28;20463;-93
2024/02/05 09:12:58;;;;;;;1.57;1.00;;;;;;;8.34;100.00;153502.47;5011702;28;20449;-94
2024/02/05 09:15:26;;;;;;;1.33;0.80;;;;;;;8.39;100.00;153515.38;4993816;28;21033;-93
2024/02/05 09:17:53;;;;;;;1.67;0.87;;;;;;;8.43;100.00;153525.75;5011727;28;20449;-93
2024/02/05 09:20:20;;;;;;;2.03;1.10;;;;;;;8.49;100.00;153539.97;4994231;28;20441;-93
2024/02/05 09:22:47;;;;;;;1.83;0.80;;;;;;;8.48;100.00;153538.69;5011586;28;20467;-93
2024/02/05 09:25:14;;;;;;;3.03;0.77;;;;;;;8.46;100.00;153533.53;5010342;28;20496;-93
2024/02/05 09:27:41;;;;;;;1.73;0.90;;;;;;;8.46;100.00;153533.53;4993874;28;20771;-94
2024/02/05 09:30:08;;;;;;;1.30;0.90;;;;;;;8.48;100.00;153537.38;4994079;28;20439;-94
2024/02/05 09:32:36;;;;;;;2.50;0.90;;;;;;;8.47;100.00;153536.06;4977684;28;20445;-94
2024/02/05 09:35:03;;;;;;;1.83;0.70;;;;;;;8.48;99.43;153537.38;5009672;28;20468;-93
2024/02/05 09:37:29;;;;;;;1.80;0.87;;;;;;;8.50;99.50;153543.84;5011309;28;20477;-94
2024/02/05 09:39:56;;;;;;;1.27;0.90;;;;;;;8.51;100.00;153545.13;5010324;28;20820;-94
2024/02/05 09:42:22;;;;;;;2.23;0.90;;;;;;;8.50;100.00;153542.53;5010506;28;20458;-95
2024/02/05 09:44:57;;;;;;;1.60;0.90;;;;;;;8.53;99.31;153551.59;4993959;28;20559;-94
2024/02/05 09:47:25;;;;;;;3.00;0.90;;;;;;;8.61;98.38;153569.69;5011844;28;20931;-94
2024/02/05 09:49:55;;;;;;;1.50;0.87;;;;;;;8.68;98.85;153587.81;5010354;28;20448;-94
2024/02/05 09:52:23;;;;;;;1.10;0.70;;;;;;;8.70;98.95;153592.97;5011653;28;20516;-94
2024/02/05 09:54:51;;;;;;;2.73;0.60;;;;;;;8.74;98.93;153603.28;5014430;28;20520;-95
2024/02/05 09:57:18;;;;;;;2.03;1.00;;;;;;;8.75;98.62;153607.19;4998313;28;20443;-95
2024/02/05 09:59:44;;;;;;;1.13;0.57;;;;;;;8.79;99.14;153617.50;4997728;28;20786;-95
2024/02/05 10:02:12;;;;;;;2.80;1.00;;;;;;;8.85;100.00;153631.75;5015227;28;20488;-95
2024/02/05 10:04:41;;;;;;;2.10;1.10;;;;;;;8.84;99.95;153630.44;5015137;28;20476;-94
2024/02/05 10:07:13;;;;;;;2.77;1.13;;;;;;;8.88;99.57;153639.50;4981533;28;20453;-94
2024/02/05 10:09:41;;;;;;;2.23;0.93;;;;;;;8.90;98.35;153645.97;5015745;28;20516;-93
2024/02/05 10:12:09;;;;;;;1.93;0.83;;;;;;;8.97;97.92;153662.81;4998512;28;21049;-94
2024/02/05 10:14:36;;;;;;;2.03;1.20;;;;;;;8.99;97.89;153669.25;5014178;28;20441;-94
2024/02/05 10:17:03;;;;;;;1.43;0.87;;;;;;;9.03;98.61;153678.28;5014022;28;21295;-94
2024/02/05 10:19:30;;;;;;;2.20;0.70;;;;;;;9.04;97.90;153682.19;5015107;28;20441;-94
2024/02/05 10:21:57;;;;;;;1.87;0.97;;;;;;;9.11;97.69;153698.97;4997362;28;20491;-94
2024/02/05 10:24:25;;;;;;;2.20;0.90;;;;;;;9.11;97.57;153698.97;5014867;28;21092;-94
2024/02/05 10:26:51;;;;;;;2.70;0.90;;;;;;;9.15;97.66;153710.66;5015347;28;20907;-94
2024/02/05 10:29:22;;;;;;;2.77;0.97;;;;;;;9.19;97.84;153719.69;5014801;28;20432;-93
2024/02/05 10:31:49;;;;;;;1.30;0.77;;;;;;;9.21;98.21;153723.59;4997584;28;20526;-93
2024/02/05 10:34:16;;;;;;;1.47;0.50;;;;;;;9.25;97.56;153733.91;4996344;28;20441;-94
2024/02/05 10:36:43;;;;;;;1.60;1.00;;;;;;;9.31;96.77;153750.75;4990360;28;20842;-94
2024/02/05 10:39:09;;;;;;;2.13;0.80;;;;;;;9.36;96.13;153763.66;4975754;28;20426;-93
2024/02/05 10:41:38;;;;;;;2.30;0.83;;;;;;;9.34;96.49;153758.50;4975973;28;21091;-96
2024/02/05 10:44:05;;;;;;;2.67;1.40;;;;;;;9.36;97.11;153763.66;4990571;28;20438;-94
2024/02/05 10:46:32;;;;;;;2.13;1.20;;;;;;;9.30;96.45;153748.13;4990240;28;20457;-95
2024/02/05 10:49:00;;;;;;;2.50;0.90;;;;;;;9.32;96.35;153753.31;4974176;28;20446;-96
2024/02/05 10:51:27;;;;;;;1.30;0.70;;;;;;;9.36;96.48;153762.38;4975552;28;20457;-95
2024/02/05 10:53:54;;;;;;;1.93;0.90;;;;;;;9.35;98.21;153759.75;4990126;28;20545;-95
2024/02/05 10:56:21;;;;;;;1.93;0.80;;;;;;;9.35;96.64;153761.06;4989960;28;20454;-94
2024/02/05 10:58:48;;;;;;;4.50;0.80;;;;;;;9.38;96.02;153768.84;4990356;28;20446;-95
2024/02/05 11:01:16;;;;;;;2.20;1.33;;;;;;;9.42;96.05;153779.22;4975403;28;20446;-96
2024/02/05 11:03:44;;;;;;;3.13;1.00;;;;;;;9.43;95.00;153781.75;4990064;28;20442;-94
2024/02/05 11:06:31;;;;;;;2.30;0.73;;;;;;;9.45;93.68;153786.94;4989596;28;20545;-94
2024/02/05 11:08:58;;;;;;;1.93;1.07;;;;;;;9.46;94.05;153788.22;4970683;28;20483;-95
2024/02/05 11:11:24;;;;;;;2.30;1.10;;;;;;;9.45;93.70;153786.94;4970257;28;20455;-95
2024/02/05 11:13:54;;;;;;;1.17;0.73;;;;;;;9.51;93.12;153802.47;4970364;28;20873;-95
2024/02/05 11:16:22;;;;;;;2.10;0.87;;;;;;;9.52;94.58;153803.78;4955990;28;20519;-95
2024/02/05 11:18:51;;;;;;;1.40;0.70;;;;;;;9.49;94.41;153797.31;4955411;29;20447;-94
2024/02/05 11:21:19;;;;;;;1.87;0.80;;;;;;;9.48;94.20;153793.41;4958891;28;20553;-95
2024/02/05 11:23:46;;;;;;;1.53;0.90;;;;;;;9.48;93.06;153794.69;4973365;28;20450;-95
2024/02/05 11:26:13;;;;;;;2.43;1.10;;;;;;;9.52;94.01;153803.78;4979244;28;20548;-95
2024/02/05 11:31:48;;;;;;;1.97;0.97;;;;;;;9.55;92.40;153811.53;4992925;28;20536;-78
2024/02/05 11:34:16;;;;;;;5.67;1.40;;;;;;;9.57;91.56;153818.00;5014297;28;20447;-78
2024/02/05 11:36:43;;;;;;;2.90;1.50;;;;;;;9.63;92.39;153833.53;5016041;28;20451;-76